Meloria — IBXK — position and weather

sailwx.info

Track history (hours):
 
Tides and Currents Weather Stations Pressure Air Temp Water Temp Dewpoint Dewpoint Depression Visibility Wind Speed Wind Dir Waves Ship Positions

Meloria

Last reported at 2014-Sep-26 12:06 UTC. Time now 2014-Oct-01 04:15 UTC.
Position N 34°20' E 033°11'.

Length 176 m; draft 9.7 m.

Type: Tanker. MMSI: 247171100.

Date/timePositionNaut miles runAvg speedWind from/ knotsBaromVisibWave heightAir tempDewpointWater temp
2014-Sep-26 12:06N 34°20' E 033°11'713.3
2014-Sep-26 11:33N 34°22' E 033°03'1313.2
2014-Sep-26 10:33N 34°26' E 032°47'1313.3
2014-Sep-26 09:33N 34°29' E 032°32'34412.2
2014-Sep-25 05:23N 36°60' E 026°11'1113.1
2014-Sep-25 04:33N 37°10' E 026°05'1313.0
2014-Sep-25 03:33N 37°21' E 025°57'1312.3
2014-Sep-25 02:33N 37°32' E 025°50'1212.1
2014-Sep-25 01:33N 37°43' E 025°44'239 7.7
2014-Sep-23 18:22N 40°55' E 028°50'6 7.5
2014-Sep-23 17:33N 40°58' E 028°57'19 8.9
2014-Sep-23 15:24N 41°15' E 029°08'7 6.6
2014-Sep-23 14:17N 41°21' E 029°03'2 1.6
2014-Sep-23 13:07N 41°21' E 029°05'  
2014-Sep-20 20:31N 40°56' E 028°58'1111.4
2014-Sep-20 19:33N 40°50' E 028°46'6 0.7
2014-Sep-20 10:33N 40°45' E 028°43'1 0.5
2014-Sep-20 09:15N 40°45' E 028°44'0 0.4
2014-Sep-20 08:33N 40°45' E 028°44'1 0.4
2014-Sep-20 07:15N 40°45' E 028°45'1 0.4
2014-Sep-20 05:27N 40°46' E 028°45'2 0.9
2014-Sep-20 03:30N 40°47' E 028°43'1211.1
2014-Sep-20 02:25N 40°48' E 028°28'280 8.7
2014-Sep-18 18:27N 37°37' E 024°05'1112.3
2014-Sep-18 17:31N 37°37' E 023°51'1111.3
2014-Sep-18 16:33N 37°44' E 023°40'1010.1
2014-Sep-18 15:33N 37°52' E 023°32'0 0.2
2014-Sep-18 14:32N 37°52' E 023°32'0 0.1
2014-Sep-18 13:32N 37°52' E 023°32'0 0.0
2014-Sep-18 12:32N 37°52' E 023°32'0 0.0
2014-Sep-18 11:32N 37°52' E 023°32'0 0.1
2014-Sep-18 10:32N 37°52' E 023°32'0 0.0
2014-Sep-18 09:32N 37°52' E 023°32'0 0.1
2014-Sep-18 08:32N 37°52' E 023°32'4 4.5
2014-Sep-18 07:33N 37°51' E 023°38'1212.0
2014-Sep-18 06:31N 37°41' E 023°45'  
Track history (hours):
 
Tides and Currents Weather Stations Pressure Air Temp Water Temp Dewpoint Dewpoint Depression Visibility Wind Speed Wind Dir Waves Ship Positions

Meloria

Last reported at 2014-Sep-26 12:06 UTC. Time now 2014-Oct-01 04:15 UTC.
Position N 34°20' E 033°11'.

Length 176 m; draft 9.7 m.

Type: Tanker. MMSI: 247171100.

Date/timePositionNaut miles runAvg speedWind from/ knotsBaromVisibWave heightAir tempDewpointWater temp
2014-Sep-26 12:06N 34°20' E 033°11'713.3
2014-Sep-26 11:33N 34°22' E 033°03'1313.2
2014-Sep-26 10:33N 34°26' E 032°47'1313.3
2014-Sep-26 09:33N 34°29' E 032°32'34412.2
2014-Sep-25 05:23N 36°60' E 026°11'1113.1
2014-Sep-25 04:33N 37°10' E 026°05'1313.0
2014-Sep-25 03:33N 37°21' E 025°57'1312.3
2014-Sep-25 02:33N 37°32' E 025°50'1212.1
2014-Sep-25 01:33N 37°43' E 025°44'239 7.7
2014-Sep-23 18:22N 40°55' E 028°50'6 7.5
2014-Sep-23 17:33N 40°58' E 028°57'19 8.9
2014-Sep-23 15:24N 41°15' E 029°08'7 6.6
2014-Sep-23 14:17N 41°21' E 029°03'2 1.6
2014-Sep-23 13:07N 41°21' E 029°05'  
2014-Sep-20 20:31N 40°56' E 028°58'1111.4
2014-Sep-20 19:33N 40°50' E 028°46'6 0.7
2014-Sep-20 10:33N 40°45' E 028°43'1 0.5
2014-Sep-20 09:15N 40°45' E 028°44'0 0.4
2014-Sep-20 08:33N 40°45' E 028°44'1 0.4
2014-Sep-20 07:15N 40°45' E 028°45'1 0.4
2014-Sep-20 05:27N 40°46' E 028°45'2 0.9
2014-Sep-20 03:30N 40°47' E 028°43'1211.1
2014-Sep-20 02:25N 40°48' E 028°28'280 8.7
2014-Sep-18 18:27N 37°37' E 024°05'1112.3
2014-Sep-18 17:31N 37°37' E 023°51'1111.3
2014-Sep-18 16:33N 37°44' E 023°40'1010.1
2014-Sep-18 15:33N 37°52' E 023°32'0 0.2
2014-Sep-18 14:32N 37°52' E 023°32'0 0.1
2014-Sep-18 13:32N 37°52' E 023°32'0 0.0
2014-Sep-18 12:32N 37°52' E 023°32'0 0.0
2014-Sep-18 11:32N 37°52' E 023°32'0 0.1
2014-Sep-18 10:32N 37°52' E 023°32'0 0.0
2014-Sep-18 09:32N 37°52' E 023°32'0 0.1
2014-Sep-18 08:32N 37°52' E 023°32'4 4.5
2014-Sep-18 07:33N 37°51' E 023°38'1212.0
2014-Sep-18 06:31N 37°41' E 023°45'  

Dump ship's entire track history